sensor_id;sensor_type;location;lat;lon;timestamp;P1;durP1;ratioP1;P2;durP2;ratioP2
52067;SDS011;60237;52.338;21.228;2024-03-23T00:54:59;54.58;;;15.02;;
52067;SDS011;60237;52.338;21.228;2024-03-23T00:57:25;57.67;;;16.20;;
52067;SDS011;60237;52.338;21.228;2024-03-23T00:59:50;65.15;;;15.50;;
52067;SDS011;60237;52.338;21.228;2024-03-23T01:02:16;60.40;;;15.25;;
52067;SDS011;60237;52.338;21.228;2024-03-23T01:04:41;40.67;;;14.02;;
52067;SDS011;60237;52.338;21.228;2024-03-23T01:07:07;84.32;;;15.27;;
52067;SDS011;60237;52.338;21.228;2024-03-23T01:09:33;68.15;;;16.08;;
52067;SDS011;60237;52.338;21.228;2024-03-23T01:11:58;61.45;;;15.75;;
52067;SDS011;60237;52.338;21.228;2024-03-23T01:14:24;50.20;;;14.50;;
52067;SDS011;60237;52.338;21.228;2024-03-23T01:16:49;47.95;;;16.00;;
52067;SDS011;60237;52.338;21.228;2024-03-23T01:19:15;61.03;;;15.60;;
52067;SDS011;60237;52.338;21.228;2024-03-23T01:21:41;81.55;;;16.90;;
52067;SDS011;60237;52.338;21.228;2024-03-23T01:24:06;47.45;;;14.73;;
52067;SDS011;60237;52.338;21.228;2024-03-23T01:26:34;42.42;;;14.85;;
52067;SDS011;60237;52.338;21.228;2024-03-23T01:28:59;58.78;;;15.77;;
52067;SDS011;60237;52.338;21.228;2024-03-23T01:31:25;69.57;;;16.80;;
52067;SDS011;60237;52.338;21.228;2024-03-23T01:33:51;55.90;;;17.05;;
52067;SDS011;60237;52.338;21.228;2024-03-23T01:36:16;67.65;;;18.48;;
52067;SDS011;60237;52.338;21.228;2024-03-23T01:38:42;46.67;;;15.68;;
52067;SDS011;60237;52.338;21.228;2024-03-23T01:41:08;85.07;;;18.63;;
52067;SDS011;60237;52.338;21.228;2024-03-23T01:43:33;53.60;;;17.27;;
52067;SDS011;60237;52.338;21.228;2024-03-23T01:45:59;39.25;;;14.93;;
52067;SDS011;60237;52.338;21.228;2024-03-23T01:48:24;71.53;;;17.80;;
52067;SDS011;60237;52.338;21.228;2024-03-23T01:50:50;57.40;;;17.05;;
52067;SDS011;60237;52.338;21.228;2024-03-23T01:53:15;75.72;;;18.10;;
52067;SDS011;60237;52.338;21.228;2024-03-23T01:55:47;51.35;;;16.67;;
52067;SDS011;60237;52.338;21.228;2024-03-23T01:58:13;78.43;;;17.92;;
52067;SDS011;60237;52.338;21.228;2024-03-23T02:00:38;157.95;;;21.75;;
52067;SDS011;60237;52.338;21.228;2024-03-23T02:03:21;61.67;;;17.02;;
52067;SDS011;60237;52.338;21.228;2024-03-23T02:05:47;69.80;;;17.70;;
52067;SDS011;60237;52.338;21.228;2024-03-23T02:08:12;53.30;;;18.05;;
52067;SDS011;60237;52.338;21.228;2024-03-23T02:10:38;61.88;;;18.45;;
52067;SDS011;60237;52.338;21.228;2024-03-23T02:13:04;132.88;;;22.63;;
52067;SDS011;60237;52.338;21.228;2024-03-23T02:15:29;46.15;;;17.02;;
52067;SDS011;60237;52.338;21.228;2024-03-23T02:17:55;66.53;;;17.63;;
52067;SDS011;60237;52.338;21.228;2024-03-23T02:20:21;77.80;;;20.02;;
52067;SDS011;60237;52.338;21.228;2024-03-23T02:22:46;80.25;;;18.45;;
52067;SDS011;60237;52.338;21.228;2024-03-23T02:25:12;68.00;;;17.65;;
52067;SDS011;60237;52.338;21.228;2024-03-23T02:27:37;49.40;;;16.90;;
52067;SDS011;60237;52.338;21.228;2024-03-23T02:30:04;90.78;;;18.83;;
52067;SDS011;60237;52.338;21.228;2024-03-23T02:32:30;86.90;;;20.55;;
52067;SDS011;60237;52.338;21.228;2024-03-23T02:34:55;54.53;;;18.30;;
52067;SDS011;60237;52.338;21.228;2024-03-23T02:37:21;94.30;;;19.73;;
52067;SDS011;60237;52.338;21.228;2024-03-23T02:39:46;70.72;;;19.88;;
52067;SDS011;60237;52.338;21.228;2024-03-23T02:42:12;61.95;;;18.88;;
52067;SDS011;60237;52.338;21.228;2024-03-23T02:44:38;63.45;;;19.08;;
52067;SDS011;60237;52.338;21.228;2024-03-23T02:47:03;72.28;;;19.58;;
52067;SDS011;60237;52.338;21.228;2024-03-23T02:49:29;101.88;;;21.42;;
52067;SDS011;60237;52.338;21.228;2024-03-23T02:51:55;85.50;;;21.20;;
52067;SDS011;60237;52.338;21.228;2024-03-23T02:54:20;53.25;;;18.13;;
52067;SDS011;60237;52.338;21.228;2024-03-23T02:56:46;51.30;;;17.95;;
52067;SDS011;60237;52.338;21.228;2024-03-23T02:59:12;64.63;;;20.25;;
52067;SDS011;60237;52.338;21.228;2024-03-23T03:01:37;70.47;;;19.23;;
52067;SDS011;60237;52.338;21.228;2024-03-23T03:04:03;43.20;;;17.42;;
52067;SDS011;60237;52.338;21.228;2024-03-23T03:06:30;45.50;;;17.25;;
52067;SDS011;60237;52.338;21.228;2024-03-23T03:08:56;63.75;;;18.52;;
52067;SDS011;60237;52.338;21.228;2024-03-23T03:11:21;87.07;;;21.23;;
52067;SDS011;60237;52.338;21.228;2024-03-23T03:13:47;62.13;;;18.88;;
52067;SDS011;60237;52.338;21.228;2024-03-23T03:16:13;60.78;;;18.90;;
52067;SDS011;60237;52.338;21.228;2024-03-23T03:18:38;62.97;;;19.60;;
52067;SDS011;60237;52.338;21.228;2024-03-23T03:21:06;88.93;;;21.15;;
52067;SDS011;60237;52.338;21.228;2024-03-23T03:23:39;61.47;;;19.38;;
52067;SDS011;60237;52.338;21.228;2024-03-23T03:26:05;95.18;;;21.05;;
52067;SDS011;60237;52.338;21.228;2024-03-23T03:28:31;49.50;;;18.05;;
52067;SDS011;60237;52.338;21.228;2024-03-23T03:31:01;61.67;;;18.83;;
52067;SDS011;60237;52.338;21.228;2024-03-23T03:33:27;68.65;;;18.25;;
52067;SDS011;60237;52.338;21.228;2024-03-23T03:35:52;81.00;;;20.15;;
52067;SDS011;60237;52.338;21.228;2024-03-23T03:38:18;78.22;;;19.27;;
52067;SDS011;60237;52.338;21.228;2024-03-23T03:40:44;51.35;;;18.48;;
52067;SDS011;60237;52.338;21.228;2024-03-23T03:43:10;76.82;;;20.52;;
52067;SDS011;60237;52.338;21.228;2024-03-23T03:45:35;55.95;;;18.85;;
52067;SDS011;60237;52.338;21.228;2024-03-23T03:48:01;40.25;;;17.95;;
52067;SDS011;60237;52.338;21.228;2024-03-23T03:50:26;91.90;;;21.67;;
52067;SDS011;60237;52.338;21.228;2024-03-23T03:52:52;83.93;;;20.00;;
52067;SDS011;60237;52.338;21.228;2024-03-23T03:55:18;54.40;;;20.38;;
52067;SDS011;60237;52.338;21.228;2024-03-23T03:57:43;48.00;;;19.15;;
52067;SDS011;60237;52.338;21.228;2024-03-23T04:00:09;49.80;;;17.90;;
52067;SDS011;60237;52.338;21.228;2024-03-23T04:02:38;80.63;;;19.85;;
52067;SDS011;60237;52.338;21.228;2024-03-23T04:05:03;108.18;;;21.38;;
52067;SDS011;60237;52.338;21.228;2024-03-23T04:07:29;83.90;;;20.40;;
52067;SDS011;60237;52.338;21.228;2024-03-23T04:09:55;89.00;;;20.48;;
52067;SDS011;60237;52.338;21.228;2024-03-23T04:12:20;59.75;;;20.15;;
52067;SDS011;60237;52.338;21.228;2024-03-23T04:14:46;103.47;;;21.15;;
52067;SDS011;60237;52.338;21.228;2024-03-23T04:17:12;61.35;;;20.02;;
52067;SDS011;60237;52.338;21.228;2024-03-23T04:19:37;67.93;;;19.80;;
52067;SDS011;60237;52.338;21.228;2024-03-23T04:22:03;59.55;;;18.98;;
52067;SDS011;60237;52.338;21.228;2024-03-23T04:24:29;53.70;;;18.42;;
52067;SDS011;60237;52.338;21.228;2024-03-23T04:26:54;50.15;;;17.83;;
52067;SDS011;60237;52.338;21.228;2024-03-23T04:29:20;62.28;;;19.27;;
52067;SDS011;60237;52.338;21.228;2024-03-23T04:31:45;91.00;;;20.30;;
52067;SDS011;60237;52.338;21.228;2024-03-23T04:34:11;48.13;;;16.67;;
52067;SDS011;60237;52.338;21.228;2024-03-23T04:36:37;54.33;;;17.45;;
52067;SDS011;60237;52.338;21.228;2024-03-23T04:39:02;79.55;;;17.83;;
52067;SDS011;60237;52.338;21.228;2024-03-23T04:41:28;59.10;;;18.45;;
52067;SDS011;60237;52.338;21.228;2024-03-23T04:43:53;56.97;;;17.33;;
52067;SDS011;60237;52.338;21.228;2024-03-23T04:46:19;57.25;;;17.33;;
52067;SDS011;60237;52.338;21.228;2024-03-23T04:48:47;53.13;;;16.70;;
52067;SDS011;60237;52.338;21.228;2024-03-23T04:51:25;71.00;;;17.60;;
52067;SDS011;60237;52.338;21.228;2024-03-23T04:53:51;53.75;;;16.55;;
52067;SDS011;60237;52.338;21.228;2024-03-23T04:56:16;53.58;;;16.42;;
52067;SDS011;60237;52.338;21.228;2024-03-23T04:58:43;43.40;;;15.30;;
52067;SDS011;60237;52.338;21.228;2024-03-23T05:01:09;84.95;;;18.30;;
52067;SDS011;60237;52.338;21.228;2024-03-23T05:03:36;96.20;;;18.70;;
52067;SDS011;60237;52.338;21.228;2024-03-23T05:06:02;40.55;;;15.77;;
52067;SDS011;60237;52.338;21.228;2024-03-23T05:08:27;59.65;;;17.55;;
52067;SDS011;60237;52.338;21.228;2024-03-23T05:10:53;85.25;;;17.27;;
52067;SDS011;60237;52.338;21.228;2024-03-23T05:13:19;91.18;;;18.92;;
52067;SDS011;60237;52.338;21.228;2024-03-23T05:15:44;65.10;;;17.17;;
52067;SDS011;60237;52.338;21.228;2024-03-23T05:18:16;76.80;;;18.13;;
52067;SDS011;60237;52.338;21.228;2024-03-23T05:20:41;45.38;;;16.70;;
52067;SDS011;60237;52.338;21.228;2024-03-23T05:23:07;84.05;;;18.80;;
52067;SDS011;60237;52.338;21.228;2024-03-23T05:25:32;70.05;;;17.75;;
52067;SDS011;60237;52.338;21.228;2024-03-23T05:27:59;60.05;;;16.98;;
52067;SDS011;60237;52.338;21.228;2024-03-23T05:30:24;51.97;;;16.10;;
52067;SDS011;60237;52.338;21.228;2024-03-23T05:32:50;72.25;;;18.67;;
52067;SDS011;60237;52.338;21.228;2024-03-23T05:35:16;52.35;;;16.58;;
52067;SDS011;60237;52.338;21.228;2024-03-23T05:37:41;64.68;;;17.58;;
52067;SDS011;60237;52.338;21.228;2024-03-23T05:40:07;60.42;;;17.02;;
52067;SDS011;60237;52.338;21.228;2024-03-23T05:42:34;61.15;;;17.63;;
52067;SDS011;60237;52.338;21.228;2024-03-23T05:45:00;72.18;;;17.48;;
52067;SDS011;60237;52.338;21.228;2024-03-23T05:47:25;72.28;;;18.50;;
52067;SDS011;60237;52.338;21.228;2024-03-23T05:49:51;80.68;;;18.50;;
52067;SDS011;60237;52.338;21.228;2024-03-23T05:52:17;56.42;;;16.95;;
52067;SDS011;60237;52.338;21.228;2024-03-23T05:54:43;44.38;;;16.05;;
52067;SDS011;60237;52.338;21.228;2024-03-23T05:57:09;67.13;;;17.92;;
52067;SDS011;60237;52.338;21.228;2024-03-23T05:59:34;67.10;;;18.70;;
52067;SDS011;60237;52.338;21.228;2024-03-23T06:02:00;65.72;;;17.27;;
52067;SDS011;60237;52.338;21.228;2024-03-23T06:04:25;51.95;;;17.48;;
52067;SDS011;60237;52.338;21.228;2024-03-23T06:06:51;104.20;;;20.45;;
52067;SDS011;60237;52.338;21.228;2024-03-23T06:09:18;61.90;;;17.98;;
52067;SDS011;60237;52.338;21.228;2024-03-23T06:11:44;63.15;;;18.80;;
52067;SDS011;60237;52.338;21.228;2024-03-23T06:14:10;56.97;;;19.33;;
52067;SDS011;60237;52.338;21.228;2024-03-23T06:16:35;52.28;;;19.90;;
52067;SDS011;60237;52.338;21.228;2024-03-23T06:19:01;57.85;;;18.48;;
52067;SDS011;60237;52.338;21.228;2024-03-23T06:21:29;54.10;;;21.08;;
52067;SDS011;60237;52.338;21.228;2024-03-23T06:23:54;59.67;;;21.48;;
52067;SDS011;60237;52.338;21.228;2024-03-23T06:26:20;76.97;;;22.92;;
52067;SDS011;60237;52.338;21.228;2024-03-23T06:28:46;71.20;;;23.58;;
52067;SDS011;60237;52.338;21.228;2024-03-23T06:31:12;78.10;;;24.77;;
52067;SDS011;60237;52.338;21.228;2024-03-23T06:33:37;69.78;;;26.08;;
52067;SDS011;60237;52.338;21.228;2024-03-23T06:36:04;79.15;;;28.25;;
52067;SDS011;60237;52.338;21.228;2024-03-23T06:38:30;70.43;;;28.58;;
52067;SDS011;60237;52.338;21.228;2024-03-23T06:40:55;82.00;;;32.25;;
52067;SDS011;60237;52.338;21.228;2024-03-23T06:43:21;79.78;;;29.60;;
52067;SDS011;60237;52.338;21.228;2024-03-23T06:45:53;70.57;;;27.52;;
52067;SDS011;60237;52.338;21.228;2024-03-23T06:48:19;122.47;;;32.20;;
52067;SDS011;60237;52.338;21.228;2024-03-23T06:50:45;110.82;;;29.40;;
52067;SDS011;60237;52.338;21.228;2024-03-23T06:53:12;103.18;;;30.20;;
52067;SDS011;60237;52.338;21.228;2024-03-23T06:55:37;63.95;;;28.60;;
52067;SDS011;60237;52.338;21.228;2024-03-23T06:58:03;65.93;;;25.45;;
52067;SDS011;60237;52.338;21.228;2024-03-23T07:00:29;63.78;;;24.25;;
52067;SDS011;60237;52.338;21.228;2024-03-23T07:02:55;99.50;;;22.67;;
52067;SDS011;60237;52.338;21.228;2024-03-23T07:05:20;63.47;;;20.77;;
52067;SDS011;60237;52.338;21.228;2024-03-23T07:07:46;64.35;;;19.58;;
52067;SDS011;60237;52.338;21.228;2024-03-23T07:10:12;61.13;;;22.30;;
52067;SDS011;60237;52.338;21.228;2024-03-23T07:12:37;76.25;;;23.67;;
52067;SDS011;60237;52.338;21.228;2024-03-23T07:15:03;80.78;;;22.15;;
52067;SDS011;60237;52.338;21.228;2024-03-23T07:17:29;124.55;;;26.73;;
52067;SDS011;60237;52.338;21.228;2024-03-23T07:19:54;80.72;;;24.65;;
52067;SDS011;60237;52.338;21.228;2024-03-23T07:22:20;90.80;;;22.90;;
52067;SDS011;60237;52.338;21.228;2024-03-23T07:24:46;50.42;;;18.95;;
52067;SDS011;60237;52.338;21.228;2024-03-23T07:27:11;78.03;;;21.23;;
52067;SDS011;60237;52.338;21.228;2024-03-23T07:29:37;52.22;;;20.17;;
52067;SDS011;60237;52.338;21.228;2024-03-23T07:32:02;75.82;;;21.27;;
52067;SDS011;60237;52.338;21.228;2024-03-23T07:34:28;85.65;;;21.55;;
52067;SDS011;60237;52.338;21.228;2024-03-23T07:36:54;83.72;;;20.42;;
52067;SDS011;60237;52.338;21.228;2024-03-23T07:39:19;73.47;;;23.58;;
52067;SDS011;60237;52.338;21.228;2024-03-23T07:41:45;77.63;;;22.23;;
52067;SDS011;60237;52.338;21.228;2024-03-23T07:44:11;70.03;;;21.38;;
52067;SDS011;60237;52.338;21.228;2024-03-23T07:46:36;75.85;;;21.58;;
52067;SDS011;60237;52.338;21.228;2024-03-23T07:49:03;68.03;;;20.65;;
52067;SDS011;60237;52.338;21.228;2024-03-23T07:51:29;55.22;;;20.35;;
52067;SDS011;60237;52.338;21.228;2024-03-23T07:53:55;54.85;;;20.35;;
52067;SDS011;60237;52.338;21.228;2024-03-23T07:56:20;70.28;;;21.10;;
52067;SDS011;60237;52.338;21.228;2024-03-23T07:58:47;63.25;;;20.08;;
52067;SDS011;60237;52.338;21.228;2024-03-23T08:01:14;81.82;;;20.77;;
52067;SDS011;60237;52.338;21.228;2024-03-23T08:03:40;72.72;;;20.20;;
52067;SDS011;60237;52.338;21.228;2024-03-23T08:06:09;68.20;;;19.13;;
52067;SDS011;60237;52.338;21.228;2024-03-23T08:08:35;56.83;;;18.42;;
52067;SDS011;60237;52.338;21.228;2024-03-23T08:11:01;74.50;;;20.48;;
52067;SDS011;60237;52.338;21.228;2024-03-23T08:13:27;65.50;;;19.48;;
52067;SDS011;60237;52.338;21.228;2024-03-23T08:15:55;95.95;;;20.50;;
52067;SDS011;60237;52.338;21.228;2024-03-23T08:18:21;99.95;;;20.42;;
52067;SDS011;60237;52.338;21.228;2024-03-23T08:20:47;55.33;;;16.23;;
52067;SDS011;60237;52.338;21.228;2024-03-23T08:23:20;48.72;;;15.85;;
52067;SDS011;60237;52.338;21.228;2024-03-23T08:25:45;46.90;;;15.65;;
52067;SDS011;60237;52.338;21.228;2024-03-23T08:28:11;47.20;;;15.70;;
52067;SDS011;60237;52.338;21.228;2024-03-23T08:30:37;55.97;;;16.25;;
52067;SDS011;60237;52.338;21.228;2024-03-23T08:33:02;59.40;;;15.05;;
52067;SDS011;60237;52.338;21.228;2024-03-23T08:35:28;62.72;;;17.73;;
52067;SDS011;60237;52.338;21.228;2024-03-23T08:37:53;56.67;;;16.17;;
52067;SDS011;60237;52.338;21.228;2024-03-23T08:40:19;58.80;;;16.30;;
52067;SDS011;60237;52.338;21.228;2024-03-23T08:42:45;40.67;;;14.40;;
52067;SDS011;60237;52.338;21.228;2024-03-23T08:45:10;66.97;;;17.08;;
52067;SDS011;60237;52.338;21.228;2024-03-23T08:47:36;53.15;;;16.60;;
52067;SDS011;60237;52.338;21.228;2024-03-23T08:50:01;67.80;;;17.52;;
52067;SDS011;60237;52.338;21.228;2024-03-23T08:52:27;46.28;;;15.38;;
52067;SDS011;60237;52.338;21.228;2024-03-23T08:54:55;55.05;;;16.38;;
52067;SDS011;60237;52.338;21.228;2024-03-23T08:57:22;96.13;;;19.58;;
52067;SDS011;60237;52.338;21.228;2024-03-23T08:59:48;47.10;;;16.83;;
52067;SDS011;60237;52.338;21.228;2024-03-23T09:02:13;56.72;;;18.10;;
52067;SDS011;60237;52.338;21.228;2024-03-23T09:04:39;43.20;;;16.65;;
52067;SDS011;60237;52.338;21.228;2024-03-23T09:07:04;82.57;;;19.05;;
52067;SDS011;60237;52.338;21.228;2024-03-23T09:09:30;75.55;;;17.95;;
52067;SDS011;60237;52.338;21.228;2024-03-23T09:11:55;61.13;;;15.20;;
52067;SDS011;60237;52.338;21.228;2024-03-23T09:14:21;68.20;;;17.85;;
52067;SDS011;60237;52.338;21.228;2024-03-23T09:16:49;47.15;;;15.00;;
52067;SDS011;60237;52.338;21.228;2024-03-23T09:19:15;76.85;;;16.70;;
52067;SDS011;60237;52.338;21.228;2024-03-23T09:21:40;64.55;;;15.98;;
52067;SDS011;60237;52.338;21.228;2024-03-23T09:24:06;50.05;;;14.45;;
52067;SDS011;60237;52.338;21.228;2024-03-23T09:26:32;51.58;;;14.25;;
52067;SDS011;60237;52.338;21.228;2024-03-23T09:28:57;51.90;;;14.05;;
52067;SDS011;60237;52.338;21.228;2024-03-23T09:31:23;52.45;;;14.80;;
52067;SDS011;60237;52.338;21.228;2024-03-23T09:33:51;50.28;;;13.93;;
52067;SDS011;60237;52.338;21.228;2024-03-23T09:36:17;47.95;;;12.90;;
52067;SDS011;60237;52.338;21.228;2024-03-23T09:38:42;46.80;;;13.43;;
52067;SDS011;60237;52.338;21.228;2024-03-23T09:41:08;61.58;;;14.98;;
52067;SDS011;60237;52.338;21.228;2024-03-23T09:43:34;39.33;;;13.32;;
52067;SDS011;60237;52.338;21.228;2024-03-23T09:46:00;90.68;;;16.23;;
52067;SDS011;60237;52.338;21.228;2024-03-23T09:48:26;83.82;;;15.70;;
52067;SDS011;60237;52.338;21.228;2024-03-23T09:50:52;52.85;;;12.63;;
52067;SDS011;60237;52.338;21.228;2024-03-23T09:53:18;53.53;;;13.80;;
52067;SDS011;60237;52.338;21.228;2024-03-23T09:55:44;43.03;;;12.40;;
52067;SDS011;60237;52.338;21.228;2024-03-23T09:58:17;55.85;;;13.73;;
52067;SDS011;60237;52.338;21.228;2024-03-23T10:00:43;104.13;;;15.90;;
52067;SDS011;60237;52.338;21.228;2024-03-23T10:03:08;78.03;;;15.30;;
52067;SDS011;60237;52.338;21.228;2024-03-23T10:05:36;49.65;;;13.20;;
52067;SDS011;60237;52.338;21.228;2024-03-23T10:10:40;77.75;;;26.58;;
52067;SDS011;60237;52.338;21.228;2024-03-23T10:13:05;95.97;;;24.30;;
52067;SDS011;60237;52.338;21.228;2024-03-23T10:15:33;79.20;;;15.20;;
52067;SDS011;60237;52.338;21.228;2024-03-23T10:17:59;87.05;;;14.32;;
52067;SDS011;60237;52.338;21.228;2024-03-23T10:20:30;65.93;;;12.98;;
52067;SDS011;60237;52.338;21.228;2024-03-23T10:22:55;87.28;;;13.43;;
52067;SDS011;60237;52.338;21.228;2024-03-23T10:25:24;63.42;;;12.25;;
52067;SDS011;60237;52.338;21.228;2024-03-23T10:27:59;72.65;;;13.40;;
52067;SDS011;60237;52.338;21.228;2024-03-23T10:30:26;52.90;;;11.35;;
52067;SDS011;60237;52.338;21.228;2024-03-23T10:35:34;92.50;;;13.32;;
52067;SDS011;60237;52.338;21.228;2024-03-23T10:38:01;65.65;;;11.40;;
52067;SDS011;60237;52.338;21.228;2024-03-23T10:40:27;105.75;;;14.18;;
52067;SDS011;60237;52.338;21.228;2024-03-23T10:42:55;68.78;;;11.05;;
52067;SDS011;60237;52.338;21.228;2024-03-23T10:45:23;62.10;;;11.50;;
52067;SDS011;60237;52.338;21.228;2024-03-23T10:47:48;54.83;;;10.70;;
52067;SDS011;60237;52.338;21.228;2024-03-23T10:50:14;56.15;;;10.55;;
52067;SDS011;60237;52.338;21.228;2024-03-23T10:52:41;81.32;;;10.73;;
52067;SDS011;60237;52.338;21.228;2024-03-23T10:55:08;57.63;;;9.98;;
52067;SDS011;60237;52.338;21.228;2024-03-23T11:00:02;48.13;;;10.43;;
52067;SDS011;60237;52.338;21.228;2024-03-23T11:02:28;32.28;;;9.35;;
52067;SDS011;60237;52.338;21.228;2024-03-23T11:04:55;36.25;;;9.80;;
52067;SDS011;60237;52.338;21.228;2024-03-23T11:09:52;35.42;;;9.70;;
52067;SDS011;60237;52.338;21.228;2024-03-23T11:14:44;30.42;;;8.57;;
52067;SDS011;60237;52.338;21.228;2024-03-23T11:17:10;62.58;;;10.50;;
52067;SDS011;60237;52.338;21.228;2024-03-23T11:19:36;55.58;;;10.13;;
52067;SDS011;60237;52.338;21.228;2024-03-23T11:22:03;33.28;;;9.38;;
52067;SDS011;60237;52.338;21.228;2024-03-23T11:24:29;34.67;;;7.75;;
52067;SDS011;60237;52.338;21.228;2024-03-23T11:26:54;73.68;;;10.82;;
52067;SDS011;60237;52.338;21.228;2024-03-23T11:29:20;40.42;;;8.27;;
52067;SDS011;60237;52.338;21.228;2024-03-23T11:31:49;40.03;;;8.10;;
52067;SDS011;60237;52.338;21.228;2024-03-23T11:34:15;34.83;;;7.60;;
52067;SDS011;60237;52.338;21.228;2024-03-23T11:36:41;71.40;;;10.07;;
52067;SDS011;60237;52.338;21.228;2024-03-23T11:41:49;63.40;;;9.60;;
52067;SDS011;60237;52.338;21.228;2024-03-23T11:44:18;49.67;;;8.48;;
52067;SDS011;60237;52.338;21.228;2024-03-23T11:46:45;26.02;;;6.18;;
52067;SDS011;60237;52.338;21.228;2024-03-23T11:49:23;76.50;;;9.90;;
52067;SDS011;60237;52.338;21.228;2024-03-23T11:51:49;33.63;;;7.15;;
52067;SDS011;60237;52.338;21.228;2024-03-23T11:54:15;21.70;;;6.78;;
52067;SDS011;60237;52.338;21.228;2024-03-23T11:56:40;29.00;;;8.38;;
52067;SDS011;60237;52.338;21.228;2024-03-23T11:59:06;55.75;;;9.15;;
52067;SDS011;60237;52.338;21.228;2024-03-23T12:01:33;54.88;;;9.30;;
52067;SDS011;60237;52.338;21.228;2024-03-23T12:03:58;63.38;;;8.80;;
52067;SDS011;60237;52.338;21.228;2024-03-23T12:06:24;37.17;;;8.02;;
52067;SDS011;60237;52.338;21.228;2024-03-23T12:08:51;46.70;;;7.35;;
52067;SDS011;60237;52.338;21.228;2024-03-23T12:11:16;78.93;;;9.82;;
52067;SDS011;60237;52.338;21.228;2024-03-23T12:13:45;38.13;;;7.30;;
52067;SDS011;60237;52.338;21.228;2024-03-23T12:16:18;71.03;;;8.95;;
52067;SDS011;60237;52.338;21.228;2024-03-23T12:18:48;41.00;;;7.07;;
52067;SDS011;60237;52.338;21.228;2024-03-23T12:21:14;43.03;;;7.40;;
52067;SDS011;60237;52.338;21.228;2024-03-23T12:23:40;43.80;;;8.57;;
52067;SDS011;60237;52.338;21.228;2024-03-23T12:26:06;28.65;;;6.57;;
52067;SDS011;60237;52.338;21.228;2024-03-23T12:28:32;55.33;;;7.43;;
52067;SDS011;60237;52.338;21.228;2024-03-23T12:30:58;52.05;;;7.82;;
52067;SDS011;60237;52.338;21.228;2024-03-23T12:33:23;79.55;;;8.55;;
52067;SDS011;60237;52.338;21.228;2024-03-23T12:35:49;60.25;;;7.10;;
52067;SDS011;60237;52.338;21.228;2024-03-23T12:38:15;103.40;;;9.73;;
52067;SDS011;60237;52.338;21.228;2024-03-23T12:40:41;75.78;;;7.95;;
52067;SDS011;60237;52.338;21.228;2024-03-23T12:43:07;79.03;;;8.23;;
52067;SDS011;60237;52.338;21.228;2024-03-23T12:45:33;35.90;;;6.22;;
52067;SDS011;60237;52.338;21.228;2024-03-23T12:47:58;40.33;;;6.30;;
52067;SDS011;60237;52.338;21.228;2024-03-23T12:50:24;39.13;;;6.10;;
52067;SDS011;60237;52.338;21.228;2024-03-23T12:52:50;38.05;;;6.65;;
52067;SDS011;60237;52.338;21.228;2024-03-23T12:55:15;81.10;;;8.57;;
52067;SDS011;60237;52.338;21.228;2024-03-23T12:57:41;74.75;;;8.70;;
52067;SDS011;60237;52.338;21.228;2024-03-23T13:00:07;37.70;;;6.40;;
52067;SDS011;60237;52.338;21.228;2024-03-23T13:02:35;74.45;;;7.95;;
52067;SDS011;60237;52.338;21.228;2024-03-23T13:05:01;69.88;;;8.38;;
52067;SDS011;60237;52.338;21.228;2024-03-23T13:07:26;29.83;;;6.07;;
52067;SDS011;60237;52.338;21.228;2024-03-23T13:09:52;21.77;;;5.40;;
52067;SDS011;60237;52.338;21.228;2024-03-23T13:12:18;65.88;;;8.32;;
52067;SDS011;60237;52.338;21.228;2024-03-23T13:14:45;30.73;;;6.60;;
52067;SDS011;60237;52.338;21.228;2024-03-23T13:17:10;51.20;;;7.03;;
52067;SDS011;60237;52.338;21.228;2024-03-23T13:19:36;34.08;;;6.45;;
52067;SDS011;60237;52.338;21.228;2024-03-23T13:22:01;36.92;;;6.50;;
52067;SDS011;60237;52.338;21.228;2024-03-23T13:24:27;34.15;;;6.82;;
52067;SDS011;60237;52.338;21.228;2024-03-23T13:26:54;48.33;;;8.00;;
52067;SDS011;60237;52.338;21.228;2024-03-23T13:29:20;55.28;;;7.78;;
52067;SDS011;60237;52.338;21.228;2024-03-23T13:31:46;37.00;;;6.93;;
52067;SDS011;60237;52.338;21.228;2024-03-23T13:34:12;38.10;;;6.63;;
52067;SDS011;60237;52.338;21.228;2024-03-23T13:36:40;87.03;;;9.07;;
52067;SDS011;60237;52.338;21.228;2024-03-23T13:39:06;74.53;;;8.32;;
52067;SDS011;60237;52.338;21.228;2024-03-23T13:41:54;85.90;;;9.98;;
52067;SDS011;60237;52.338;21.228;2024-03-23T13:44:21;45.95;;;9.68;;
52067;SDS011;60237;52.338;21.228;2024-03-23T13:46:47;37.08;;;7.93;;
52067;SDS011;60237;52.338;21.228;2024-03-23T13:49:18;54.28;;;10.88;;
52067;SDS011;60237;52.338;21.228;2024-03-23T13:51:48;30.77;;;9.05;;
52067;SDS011;60237;52.338;21.228;2024-03-23T13:54:16;51.25;;;8.85;;
52067;SDS011;60237;52.338;21.228;2024-03-23T13:56:42;59.55;;;8.77;;
52067;SDS011;60237;52.338;21.228;2024-03-23T13:59:08;89.13;;;10.82;;
52067;SDS011;60237;52.338;21.228;2024-03-23T14:01:34;39.65;;;7.78;;
52067;SDS011;60237;52.338;21.228;2024-03-23T14:03:59;32.97;;;7.00;;
52067;SDS011;60237;52.338;21.228;2024-03-23T14:06:25;53.45;;;9.35;;
52067;SDS011;60237;52.338;21.228;2024-03-23T14:08:50;32.55;;;8.07;;
52067;SDS011;60237;52.338;21.228;2024-03-23T14:11:17;51.92;;;10.27;;
52067;SDS011;60237;52.338;21.228;2024-03-23T14:13:43;59.88;;;10.30;;
52067;SDS011;60237;52.338;21.228;2024-03-23T14:16:08;68.45;;;10.15;;
52067;SDS011;60237;52.338;21.228;2024-03-23T14:18:34;63.65;;;8.60;;
52067;SDS011;60237;52.338;21.228;2024-03-23T14:21:00;78.60;;;10.43;;
52067;SDS011;60237;52.338;21.228;2024-03-23T14:23:30;51.80;;;15.43;;
52067;SDS011;60237;52.338;21.228;2024-03-23T14:25:58;55.65;;;12.05;;
52067;SDS011;60237;52.338;21.228;2024-03-23T14:28:24;36.05;;;8.90;;
52067;SDS011;60237;52.338;21.228;2024-03-23T14:30:50;51.40;;;7.18;;
52067;SDS011;60237;52.338;21.228;2024-03-23T14:33:16;55.67;;;6.90;;
52067;SDS011;60237;52.338;21.228;2024-03-23T14:35:42;44.00;;;7.40;;
52067;SDS011;60237;52.338;21.228;2024-03-23T14:38:07;30.52;;;12.73;;
52067;SDS011;60237;52.338;21.228;2024-03-23T14:40:33;41.85;;;12.20;;
52067;SDS011;60237;52.338;21.228;2024-03-23T14:42:59;46.58;;;14.18;;
52067;SDS011;60237;52.338;21.228;2024-03-23T14:45:25;60.83;;;14.75;;
52067;SDS011;60237;52.338;21.228;2024-03-23T14:47:51;47.38;;;14.93;;
52067;SDS011;60237;52.338;21.228;2024-03-23T14:50:17;56.95;;;16.45;;
52067;SDS011;60237;52.338;21.228;2024-03-23T14:52:46;52.10;;;16.55;;
52067;SDS011;60237;52.338;21.228;2024-03-23T14:55:12;86.65;;;16.50;;
52067;SDS011;60237;52.338;21.228;2024-03-23T14:57:38;77.80;;;16.40;;
52067;SDS011;60237;52.338;21.228;2024-03-23T15:00:06;47.88;;;12.43;;
52067;SDS011;60237;52.338;21.228;2024-03-23T15:02:32;37.92;;;11.73;;
52067;SDS011;60237;52.338;21.228;2024-03-23T15:04:58;57.03;;;14.18;;
52067;SDS011;60237;52.338;21.228;2024-03-23T15:07:24;44.13;;;14.40;;
52067;SDS011;60237;52.338;21.228;2024-03-23T15:09:49;70.30;;;14.02;;
52067;SDS011;60237;52.338;21.228;2024-03-23T15:12:15;47.05;;;11.80;;
52067;SDS011;60237;52.338;21.228;2024-03-23T15:14:41;62.30;;;13.02;;